Time;durP1;ratioP1;P1;durP2;ratioP2;P2;SDS_P1;SDS_P2;PMS_P1;PMS_P2;Temp;Humidity;BMP_temperature;BMP_pressure;BME280_temperature;BME280_humidity;BME280_pressure;Samples;Min_cycle;Max_cycle;Signal;HPM_P1;HPM_P2
2022/05/15 00:00:41;;;;;;;0.00;0.00;;;;;;;21.46;63.09;98963.91;5032292;28;20076;-84
2022/05/15 00:03:14;;;;;;;0.10;0.10;;;;;;;21.50;62.87;98962.84;5031232;28;20061;-84
2022/05/15 00:05:41;;;;;;;0.00;0.00;;;;;;;21.55;62.94;98959.84;5030743;28;20029;-85
2022/05/15 00:08:08;;;;;;;0.10;0.10;;;;;;;21.66;62.58;98967.53;5030944;28;20025;-84
2022/05/15 00:10:33;;;;;;;0.10;0.10;;;;;;;21.67;62.46;98964.44;5030852;28;20030;-84
2022/05/15 00:12:59;;;;;;;0.00;0.00;;;;;;;21.66;62.69;98962.09;5030844;28;20493;-84
2022/05/15 00:15:25;;;;;;;0.10;0.10;;;;;;;21.77;62.56;98960.41;5030349;28;20037;-84
2022/05/15 00:17:50;;;;;;;0.00;0.00;;;;;;;21.78;62.58;98969.38;5031124;28;20071;-84
2022/05/15 00:20:15;;;;;;;0.00;0.00;;;;;;;21.78;62.38;98970.16;5030912;28;20104;-84
2022/05/15 00:22:42;;;;;;;0.10;0.10;;;;;;;21.74;62.56;98956.47;5030794;28;20031;-84
2022/05/15 00:25:08;;;;;;;0.00;0.00;;;;;;;21.75;62.70;98965.41;5030776;28;20025;-84
2022/05/15 00:27:33;;;;;;;0.55;0.32;;;;;;;21.65;62.94;98966.72;5030538;28;20052;-83
2022/05/15 00:30:00;;;;;;;0.00;0.00;;;;;;;21.56;63.02;98963.38;5030704;28;20029;-84
2022/05/15 00:32:25;;;;;;;0.10;0.10;;;;;;;21.50;63.38;98973.72;5030615;28;20026;-83
2022/05/15 00:34:51;;;;;;;2.72;0.30;;;;;;;21.44;63.60;98981.34;5030719;28;20394;-84
2022/05/15 00:37:16;;;;;;;0.10;0.10;;;;;;;21.38;63.92;98974.59;5030551;28;20025;-82
2022/05/15 00:39:41;;;;;;;0.10;0.10;;;;;;;21.27;64.45;98982.47;5030160;28;20435;-83
2022/05/15 00:42:11;;;;;;;0.05;0.05;;;;;;;21.22;64.92;98985.47;5030144;28;20053;-82
2022/05/15 00:44:37;;;;;;;0.10;0.10;;;;;;;21.16;65.30;98983.34;5029360;28;20492;-82
2022/05/15 00:47:03;;;;;;;0.10;0.10;;;;;;;21.08;66.05;98993.22;5030412;28;20025;-83
2022/05/15 00:49:29;;;;;;;0.00;0.00;;;;;;;20.98;67.11;98994.53;5029861;28;20421;-81
2022/05/15 00:51:59;;;;;;;0.10;0.10;;;;;;;20.93;67.78;99002.94;5030209;28;20029;-82
2022/05/15 00:54:40;;;;;;;0.15;0.15;;;;;;;20.84;68.30;99005.81;5043252;28;20032;-82
2022/05/15 00:57:15;;;;;;;0.10;0.10;;;;;;;20.80;68.93;99013.09;5050056;28;20029;-82
2022/05/15 00:59:48;;;;;;;0.00;0.00;;;;;;;20.78;69.40;99021.56;5049533;28;20013;-82
2022/05/15 01:02:15;;;;;;;0.10;0.10;;;;;;;20.70;70.43;99035.28;5050058;28;20041;-82
2022/05/15 01:04:41;;;;;;;0.10;0.10;;;;;;;20.68;70.51;99040.25;5049685;28;20036;-82
2022/05/15 01:07:07;;;;;;;0.38;0.30;;;;;;;20.66;70.04;99039.81;5049919;28;20507;-83
2022/05/15 01:09:32;;;;;;;0.10;0.10;;;;;;;20.59;70.08;99034.94;5049502;28;20029;-82
2022/05/15 01:12:02;;;;;;;0.08;0.08;;;;;;;20.57;70.37;99042.69;5044624;28;20120;-81
2022/05/15 01:14:28;;;;;;;0.10;0.10;;;;;;;20.43;71.73;99026.72;5029718;28;20030;-82
2022/05/15 01:16:54;;;;;;;0.10;0.10;;;;;;;20.37;72.08;99011.81;5029848;28;20416;-82
2022/05/15 01:19:35;;;;;;;0.70;0.63;;;;;;;20.28;72.67;99009.22;5029964;28;20025;-83
2022/05/15 01:22:01;;;;;;;0.10;0.10;;;;;;;20.13;73.35;99002.56;5029672;28;20030;-83
2022/05/15 01:24:27;;;;;;;0.00;0.00;;;;;;;20.05;73.68;98998.03;5029812;28;20029;-84
2022/05/15 01:26:53;;;;;;;0.10;0.10;;;;;;;20.04;74.17;98997.22;5029913;28;20456;-85
2022/05/15 01:29:30;;;;;;;0.00;0.00;;;;;;;19.94;74.51;98992.28;5029871;28;20509;-84
2022/05/15 01:31:57;;;;;;;0.10;0.10;;;;;;;19.94;74.86;98998.47;5030038;28;20385;-84
2022/05/15 01:34:23;;;;;;;0.15;0.15;;;;;;;19.81;75.14;98980.59;5029703;28;20025;-84
2022/05/15 01:36:49;;;;;;;0.10;0.10;;;;;;;19.75;74.95;98982.75;5030011;28;20029;-84
2022/05/15 01:39:14;;;;;;;0.10;0.10;;;;;;;19.81;74.53;98972.44;5029971;28;20057;-84
2022/05/15 01:41:39;;;;;;;0.15;0.15;;;;;;;19.75;74.82;98966.47;5029303;28;20136;-85
2022/05/15 01:44:05;;;;;;;0.10;0.10;;;;;;;19.70;74.95;98963.19;5029998;28;20025;-85
2022/05/15 01:46:31;;;;;;;0.10;0.10;;;;;;;19.70;75.28;98968.63;5029773;28;20472;-84
2022/05/15 01:48:59;;;;;;;0.00;0.00;;;;;;;19.61;75.50;98979.59;5029676;28;20469;-85
2022/05/15 01:51:25;;;;;;;0.10;0.10;;;;;;;19.64;75.98;98979.69;5029364;28;20088;-86
2022/05/15 01:53:51;;;;;;;0.05;0.05;;;;;;;19.67;76.85;98987.16;5029871;28;20025;-85
2022/05/15 01:56:17;;;;;;;0.17;0.17;;;;;;;19.64;76.56;98978.88;5032048;28;20120;-85
2022/05/15 01:58:42;;;;;;;0.00;0.00;;;;;;;19.61;77.62;98972.22;5033436;28;20025;-86
2022/05/15 02:01:08;;;;;;;0.10;0.10;;;;;;;19.65;77.70;98988.63;5033858;28;20021;-86
2022/05/15 02:03:34;;;;;;;0.20;0.20;;;;;;;19.67;78.36;98984.44;5034000;28;20408;-86
2022/05/15 02:06:00;;;;;;;0.10;0.10;;;;;;;19.70;77.87;98980.28;5033592;28;20099;-84
2022/05/15 02:08:27;;;;;;;0.00;0.00;;;;;;;19.67;78.21;98984.44;5033551;28;20025;-85
2022/05/15 02:10:53;;;;;;;0.20;0.20;;;;;;;19.63;78.75;98980.81;5033099;28;20036;-84
2022/05/15 02:13:18;;;;;;;0.10;0.10;;;;;;;19.66;79.10;98990.19;5032974;28;20120;-85
2022/05/15 02:15:44;;;;;;;0.10;0.10;;;;;;;19.68;79.90;98988.72;5033036;28;20037;-85
2022/05/15 02:18:09;;;;;;;0.00;0.00;;;;;;;19.65;79.37;98978.56;5033210;28;20481;-85
2022/05/15 02:20:36;;;;;;;0.10;0.10;;;;;;;19.64;79.49;98981.59;5033022;28;20491;-84
2022/05/15 02:23:01;;;;;;;0.47;0.20;;;;;;;19.63;79.87;98977.34;5033142;28;20033;-85
2022/05/15 02:25:27;;;;;;;0.00;0.00;;;;;;;19.62;80.44;98984.66;5032943;28;20032;-85
2022/05/15 02:27:53;;;;;;;0.60;0.40;;;;;;;19.64;80.63;98995.16;5032831;28;20481;-84
2022/05/15 02:30:18;;;;;;;0.00;0.00;;;;;;;19.59;80.80;98990.78;5032546;28;20037;-84
2022/05/15 02:32:44;;;;;;;0.10;0.10;;;;;;;19.68;80.49;98986.03;5032670;28;20032;-84
2022/05/15 02:35:10;;;;;;;0.10;0.10;;;;;;;19.62;80.33;98976.53;5032982;28;20026;-84
2022/05/15 02:37:37;;;;;;;0.00;0.00;;;;;;;19.65;80.28;98980.47;5032495;28;20127;-84
2022/05/15 02:40:05;;;;;;;0.10;0.10;;;;;;;19.66;80.38;98979.34;5032792;28;20029;-84
2022/05/15 02:42:31;;;;;;;0.10;0.10;;;;;;;19.68;80.48;98985.25;5032194;28;20187;-83
2022/05/15 02:44:56;;;;;;;0.10;0.10;;;;;;;19.72;80.21;98979.94;5032625;28;20112;-84
2022/05/15 02:47:22;;;;;;;0.10;0.10;;;;;;;19.70;80.46;98977.56;5032577;28;20033;-83
2022/05/15 02:52:31;;;;;;;0.00;0.00;;;;;;;19.74;80.22;98985.78;5033655;28;20132;-83
2022/05/15 02:54:56;;;;;;;0.00;0.00;;;;;;;19.81;80.05;98978.69;5032574;28;20052;-83
2022/05/15 02:57:22;;;;;;;0.00;0.00;;;;;;;19.82;79.94;98977.56;5032511;28;20127;-83
2022/05/15 02:59:47;;;;;;;0.10;0.10;;;;;;;19.88;79.66;98983.56;5032056;28;20022;-84
2022/05/15 03:02:13;;;;;;;0.00;0.00;;;;;;;19.84;79.68;98983.44;5032252;28;20548;-84
2022/05/15 03:04:38;;;;;;;0.20;0.20;;;;;;;19.86;79.84;98983.13;5031933;28;20028;-84
2022/05/15 03:07:05;;;;;;;0.20;0.20;;;;;;;19.89;79.46;98987.88;5031211;28;20132;-84
2022/05/15 03:09:32;;;;;;;0.00;0.00;;;;;;;19.89;79.29;98984.38;5032992;28;20057;-84
2022/05/15 03:11:57;;;;;;;0.20;0.20;;;;;;;19.94;78.85;98984.91;5031966;28;20080;-83
2022/05/15 03:14:22;;;;;;;0.00;0.00;;;;;;;19.92;78.88;98989.91;5033181;28;20471;-83
2022/05/15 03:16:48;;;;;;;0.10;0.10;;;;;;;19.96;78.67;98990.81;5031894;28;20036;-83
2022/05/15 03:19:13;;;;;;;0.10;0.10;;;;;;;20.03;77.79;98981.28;5032093;28;20484;-83
2022/05/15 03:21:39;;;;;;;0.10;0.10;;;;;;;20.04;77.85;98978.22;5031722;28;20025;-84
2022/05/15 03:24:05;;;;;;;0.03;0.03;;;;;;;20.04;77.92;98989.09;5032127;28;20036;-83
2022/05/15 03:26:33;;;;;;;0.10;0.10;;;;;;;19.98;77.81;98988.56;5031465;28;20125;-83
2022/05/15 03:28:59;;;;;;;0.00;0.00;;;;;;;19.97;78.01;98989.69;5031565;28;20126;-83
2022/05/15 03:31:25;;;;;;;0.10;0.10;;;;;;;19.87;78.29;98981.19;5031665;28;20064;-83
2022/05/15 03:33:50;;;;;;;0.00;0.00;;;;;;;19.91;78.59;98973.94;5031441;28;20029;-83
2022/05/15 03:36:16;;;;;;;0.10;0.10;;;;;;;20.02;78.50;98988.66;5031567;28;20124;-83
2022/05/15 03:38:43;;;;;;;0.20;0.20;;;;;;;20.14;77.64;98980.50;5031499;28;20112;-84
2022/05/15 03:41:08;;;;;;;0.13;0.13;;;;;;;20.21;77.17;98973.69;5031105;28;20132;-84
2022/05/15 03:43:35;;;;;;;0.00;0.00;;;;;;;20.36;77.03;98983.06;5031257;28;20120;-84
2022/05/15 03:46:02;;;;;;;0.10;0.10;;;;;;;20.59;76.92;98975.19;5031579;28;20060;-83
2022/05/15 03:48:28;;;;;;;0.00;0.00;;;;;;;20.92;75.53;98974.97;5031395;28;20024;-84
2022/05/15 03:50:53;;;;;;;0.00;0.00;;;;;;;21.24;74.81;98979.69;5031264;28;20030;-84
2022/05/15 03:53:18;;;;;;;0.10;0.10;;;;;;;21.52;72.83;98979.63;5031011;28;20082;-84
2022/05/15 03:55:44;;;;;;;0.00;0.00;;;;;;;21.95;71.32;98976.34;5031044;28;20132;-84
2022/05/15 03:58:10;;;;;;;0.00;0.00;;;;;;;22.35;69.64;98980.72;5031439;28;20034;-84
2022/05/15 04:00:36;;;;;;;0.00;0.00;;;;;;;22.69;68.25;98978.34;5030893;28;20033;-84
2022/05/15 04:03:01;;;;;;;0.03;0.03;;;;;;;23.13;66.65;98983.47;5031306;28;20024;-84
2022/05/15 04:05:27;;;;;;;0.00;0.00;;;;;;;23.55;65.07;98989.28;5031131;28;20025;-84
2022/05/15 04:07:53;;;;;;;0.00;0.00;;;;;;;24.00;63.39;98990.41;5030692;28;20061;-84
2022/05/15 04:10:22;;;;;;;0.00;0.00;;;;;;;24.34;61.88;98986.94;5030998;28;20080;-85
2022/05/15 04:12:47;;;;;;;0.20;0.20;;;;;;;24.78;60.92;98992.59;5030766;28;20480;-85
2022/05/15 04:15:13;;;;;;;0.00;0.00;;;;;;;25.28;58.69;98991.56;5042576;28;20035;-85
2022/05/15 04:17:43;;;;;;;0.00;0.00;;;;;;;25.70;57.36;98992.34;5050365;28;20025;-85
2022/05/15 04:20:10;;;;;;;0.00;0.00;;;;;;;26.09;55.56;98991.06;5050904;28;20028;-85
2022/05/15 04:22:35;;;;;;;0.00;0.00;;;;;;;26.42;54.06;98994.78;5050408;28;20047;-85
2022/05/15 04:25:01;;;;;;;0.00;0.00;;;;;;;26.81;52.77;98994.16;5050562;28;20036;-83
2022/05/15 04:27:26;;;;;;;0.00;0.00;;;;;;;27.11;51.87;98993.84;5050509;28;20500;-85
2022/05/15 04:29:52;;;;;;;0.00;0.00;;;;;;;27.45;51.75;99004.53;5049949;28;20032;-85
2022/05/15 04:32:18;;;;;;;0.00;0.00;;;;;;;27.76;50.37;98998.63;5050306;28;20040;-84
2022/05/15 04:34:43;;;;;;;0.00;0.00;;;;;;;27.90;49.92;99001.34;5031186;28;20029;-85
2022/05/15 04:37:09;;;;;;;0.15;0.15;;;;;;;28.09;49.27;99008.41;5030453;28;20025;-84
2022/05/15 04:39:35;;;;;;;0.00;0.00;;;;;;;28.30;48.54;98998.56;5031742;28;20041;-85
2022/05/15 04:42:01;;;;;;;0.00;0.00;;;;;;;28.46;48.12;98998.09;5030407;28;20049;-84
2022/05/15 04:44:27;;;;;;;0.00;0.00;;;;;;;28.60;47.06;99002.78;5030414;28;20021;-85
2022/05/15 04:46:52;;;;;;;0.00;0.00;;;;;;;28.75;46.92;99000.78;5030368;28;20120;-85
2022/05/15 04:49:18;;;;;;;0.00;0.00;;;;;;;28.86;46.37;98998.75;5030508;28;20024;-85
2022/05/15 04:51:45;;;;;;;0.00;0.00;;;;;;;29.11;45.92;99000.56;5030089;28;20510;-85
2022/05/15 04:54:10;;;;;;;0.00;0.00;;;;;;;29.27;45.47;99004.78;5030725;28;20026;-85
2022/05/15 04:56:36;;;;;;;0.00;0.00;;;;;;;29.51;45.32;99003.06;5030382;28;20044;-85
2022/05/15 04:59:01;;;;;;;0.00;0.00;;;;;;;29.84;44.56;99007.09;5047040;28;20033;-84
2022/05/15 05:01:27;;;;;;;0.00;0.00;;;;;;;30.08;44.15;99003.75;5030330;28;20051;-84
2022/05/15 05:03:54;;;;;;;0.00;0.00;;;;;;;30.39;43.28;99003.84;5029717;28;20053;-85
2022/05/15 05:06:20;;;;;;;0.00;0.00;;;;;;;30.71;42.92;99003.47;5029918;28;20034;-85
2022/05/15 05:08:45;;;;;;;0.00;0.00;;;;;;;30.81;42.47;98999.03;5029654;28;20115;-85
2022/05/15 05:11:11;;;;;;;0.00;0.00;;;;;;;31.05;41.73;99004.59;5046281;28;20512;-85
2022/05/15 05:13:36;;;;;;;0.00;0.00;;;;;;;31.42;41.46;99014.72;5052448;28;20040;-85
2022/05/15 05:16:02;;;;;;;0.00;0.00;;;;;;;31.66;40.42;99012.00;5049890;28;20033;-85
2022/05/15 05:18:28;;;;;;;0.00;0.00;;;;;;;32.00;40.34;99022.06;5049805;28;20424;-85
2022/05/15 05:20:53;;;;;;;0.00;0.00;;;;;;;32.35;39.78;99021.88;5049731;28;20025;-85
2022/05/15 05:23:18;;;;;;;0.00;0.00;;;;;;;32.56;39.38;99023.41;5049655;28;20021;-85
2022/05/15 05:25:44;;;;;;;0.00;0.00;;;;;;;32.87;38.39;99021.22;5049450;28;20404;-85
2022/05/15 05:28:09;;;;;;;0.03;0.03;;;;;;;33.13;38.08;99013.13;5049615;28;20021;-85
2022/05/15 05:30:37;;;;;;;0.10;0.10;;;;;;;33.45;37.64;99024.69;5038492;28;20040;-85
2022/05/15 05:33:03;;;;;;;0.10;0.10;;;;;;;33.69;36.46;99016.94;5034008;28;20112;-85
2022/05/15 05:35:29;;;;;;;0.00;0.00;;;;;;;33.86;35.73;99019.75;5034633;28;20501;-85
2022/05/15 05:37:55;;;;;;;0.00;0.00;;;;;;;34.12;34.46;99015.88;5033720;28;20125;-85
2022/05/15 05:40:21;;;;;;;0.00;0.00;;;;;;;34.04;34.04;99022.06;5033878;28;20039;-86
2022/05/15 05:42:46;;;;;;;0.10;0.10;;;;;;;34.11;33.63;99022.63;5033267;28;20049;-86
2022/05/15 05:45:12;;;;;;;0.00;0.00;;;;;;;34.02;32.33;99022.50;5050410;28;20509;-85
2022/05/15 05:47:38;;;;;;;0.20;0.20;;;;;;;33.87;32.79;99018.53;5033528;28;20033;-86
2022/05/15 05:50:09;;;;;;;0.00;0.00;;;;;;;33.82;32.38;99019.81;5051487;28;20025;-86
2022/05/15 05:52:39;;;;;;;0.00;0.00;;;;;;;33.86;32.68;99023.28;5053308;28;20059;-86
2022/05/15 05:55:06;;;;;;;0.00;0.00;;;;;;;33.92;32.35;99021.53;5053254;28;20071;-86
2022/05/15 05:57:32;;;;;;;0.00;0.00;;;;;;;34.02;31.64;99025.28;5053051;28;20036;-86
2022/05/15 05:59:57;;;;;;;0.15;0.15;;;;;;;33.99;32.16;99026.91;5052955;28;20396;-86
2022/05/15 06:02:25;;;;;;;0.20;0.20;;;;;;;33.74;32.10;99029.50;5053170;28;20036;-86
2022/05/15 06:04:50;;;;;;;0.00;0.00;;;;;;;33.60;33.61;99027.88;5052944;28;20404;-86
2022/05/15 06:07:27;;;;;;;0.22;0.22;;;;;;;33.54;32.67;99029.63;5046860;28;20481;-84
2022/05/15 06:09:53;;;;;;;0.10;0.10;;;;;;;33.39;32.54;99026.44;5033095;28;20045;-84
2022/05/15 06:12:21;;;;;;;0.00;0.00;;;;;;;33.42;32.32;99020.78;5033223;28;20484;-85
2022/05/15 06:14:47;;;;;;;0.10;0.10;;;;;;;33.32;31.86;99019.81;5032694;28;20017;-85
2022/05/15 06:17:12;;;;;;;0.00;0.00;;;;;;;33.14;32.76;99022.19;5033184;28;20045;-85
2022/05/15 06:19:38;;;;;;;0.28;0.28;;;;;;;33.03;32.54;99022.44;5034080;28;20029;-85
2022/05/15 06:22:04;;;;;;;0.05;0.05;;;;;;;32.93;33.39;99023.47;5033129;28;20118;-85
2022/05/15 06:24:30;;;;;;;0.00;0.00;;;;;;;32.97;32.85;99024.97;5033919;28;20469;-84
2022/05/15 06:26:58;;;;;;;0.10;0.10;;;;;;;32.98;33.25;99023.75;5032372;28;20071;-84
2022/05/15 06:29:25;;;;;;;0.00;0.00;;;;;;;32.94;32.28;99030.56;5032733;28;20448;-85
2022/05/15 06:31:50;;;;;;;0.10;0.10;;;;;;;32.55;33.06;99027.38;5032430;28;20143;-85
2022/05/15 06:34:16;;;;;;;0.08;0.08;;;;;;;32.46;33.68;99032.69;5032722;28;20056;-84
2022/05/15 06:36:42;;;;;;;0.10;0.10;;;;;;;32.43;33.12;99023.25;5032600;28;20091;-86
2022/05/15 06:39:08;;;;;;;0.45;0.20;;;;;;;32.29;32.94;99023.53;5032699;28;20040;-85
2022/05/15 06:41:34;;;;;;;0.00;0.00;;;;;;;32.21;33.00;99020.94;5031391;28;20053;-86
2022/05/15 06:44:00;;;;;;;0.10;0.10;;;;;;;31.96;33.61;99015.03;5031830;28;20394;-84
2022/05/15 06:46:26;;;;;;;0.00;0.00;;;;;;;31.65;33.15;99018.72;5032460;28;20033;-85
2022/05/15 06:48:52;;;;;;;0.17;0.17;;;;;;;31.46;33.63;99020.19;5032169;28;20033;-86
2022/05/15 06:51:17;;;;;;;0.10;0.10;;;;;;;31.30;34.11;99023.59;5032362;28;20032;-86
2022/05/15 06:53:47;;;;;;;0.00;0.00;;;;;;;31.18;34.72;99013.91;5031948;28;20040;-86
2022/05/15 06:58:58;;;;;;;1.38;0.10;;;;;;;30.90;34.69;99026.09;5033392;28;20134;-86
2022/05/15 07:01:23;;;;;;;0.08;0.08;;;;;;;30.73;34.49;99022.38;5032325;28;20072;-85
2022/05/15 07:03:49;;;;;;;0.00;0.00;;;;;;;30.72;34.20;99031.84;5031907;28;20025;-85
2022/05/15 07:06:15;;;;;;;0.08;0.08;;;;;;;30.59;33.69;99034.38;5032103;28;20180;-86
2022/05/15 07:08:41;;;;;;;0.00;0.00;;;;;;;30.52;34.64;99028.94;5031760;28;20029;-86
2022/05/15 07:11:07;;;;;;;0.00;0.00;;;;;;;30.53;34.22;99028.53;5032534;28;20428;-86
2022/05/15 07:13:33;;;;;;;0.57;0.20;;;;;;;30.54;33.93;99027.34;5047623;28;20481;-86
2022/05/15 07:15:59;;;;;;;0.00;0.00;;;;;;;30.51;34.56;99019.88;5051878;28;20136;-86
2022/05/15 07:18:25;;;;;;;0.00;0.00;;;;;;;30.47;35.19;99027.41;5052753;28;20029;-86
2022/05/15 07:20:52;;;;;;;0.00;0.00;;;;;;;30.39;35.40;99026.69;5051449;28;20502;-86
2022/05/15 07:23:18;;;;;;;0.00;0.00;;;;;;;30.31;35.05;99022.44;5051556;28;20037;-86
2022/05/15 07:25:44;;;;;;;0.10;0.10;;;;;;;30.09;34.66;99013.59;5051446;28;20243;-86
2022/05/15 07:28:10;;;;;;;0.10;0.10;;;;;;;30.05;34.14;99019.16;5051960;28;20025;-86
2022/05/15 07:30:35;;;;;;;0.35;0.35;;;;;;;29.97;33.10;99025.94;5049131;28;20075;-84
2022/05/15 07:33:01;;;;;;;0.10;0.10;;;;;;;29.85;33.26;99022.47;5031586;28;20103;-87
2022/05/15 07:35:27;;;;;;;0.00;0.00;;;;;;;29.84;33.47;99025.63;5031886;28;20034;-87
2022/05/15 07:37:52;;;;;;;0.00;0.00;;;;;;;29.68;33.33;99021.44;5032330;28;20033;-87
2022/05/15 07:40:18;;;;;;;0.00;0.00;;;;;;;29.53;33.08;99020.78;5031808;28;20029;-85
2022/05/15 07:42:44;;;;;;;0.00;0.00;;;;;;;29.44;33.03;99023.19;5030787;28;20068;-86
2022/05/15 07:45:10;;;;;;;0.00;0.00;;;;;;;29.37;31.72;99013.03;5031326;28;20481;-86
2022/05/15 07:47:36;;;;;;;1.10;0.82;;;;;;;29.22;31.57;99017.03;5031534;28;20120;-85
2022/05/15 07:50:01;;;;;;;0.00;0.00;;;;;;;29.15;32.18;99019.81;5030980;28;20186;-86
2022/05/15 07:52:27;;;;;;;0.10;0.10;;;;;;;29.06;32.48;99020.25;5031326;28;20075;-86
2022/05/15 07:54:52;;;;;;;0.00;0.00;;;;;;;29.06;32.12;99023.00;5030591;28;20051;-86
2022/05/15 07:57:18;;;;;;;0.13;0.13;;;;;;;29.02;32.28;99019.50;5031564;28;20022;-85
2022/05/15 07:59:43;;;;;;;0.00;0.00;;;;;;;28.98;32.91;99011.28;5031436;28;20057;-86
2022/05/15 08:02:09;;;;;;;0.00;0.00;;;;;;;28.97;31.95;99023.47;5031473;28;20029;-86
2022/05/15 08:08:00;;;;;;;0.10;0.10;;;;;;;28.95;32.17;99006.56;5030804;28;20114;-86
2022/05/15 08:10:07;;;;;;;0.00;0.00;;;;;;;28.96;31.98;99030.16;5032257;28;20037;-85
2022/05/15 08:12:34;;;;;;;0.30;0.30;;;;;;;28.98;31.87;99016.78;5031103;28;20041;-86
2022/05/15 08:15:04;;;;;;;0.10;0.10;;;;;;;28.87;32.37;99019.59;5030650;28;20028;-85
2022/05/15 08:17:29;;;;;;;0.00;0.00;;;;;;;28.77;32.60;99023.16;5030907;28;20041;-86
2022/05/15 08:25:44;;;;;;;0.00;0.00;;;;;;;28.80;32.61;99027.88;4971008;28;20127;-84
2022/05/15 08:28:10;;;;;;;0.00;0.00;;;;;;;28.68;33.15;99029.09;5006286;28;20064;-84
2022/05/15 08:30:35;;;;;;;0.10;0.10;;;;;;;28.69;32.60;99027.16;5030508;28;20514;-85
2022/05/15 08:33:01;;;;;;;0.00;0.00;;;;;;;28.62;32.73;99036.16;5032053;28;20072;-85
2022/05/15 08:35:29;;;;;;;0.05;0.05;;;;;;;28.51;32.41;99032.69;5030557;28;20021;-84
2022/05/15 08:37:54;;;;;;;;;;;;;;;28.47;32.32;99040.16;5030731;28;20041;-84
2022/05/15 08:40:26;;;;;;;0.20;0.20;;;;;;;28.50;32.66;99034.63;5030768;28;19963;-85
2022/05/15 08:42:56;;;;;;;0.10;0.10;;;;;;;28.58;32.63;99038.16;5030176;28;20092;-85
2022/05/15 08:45:32;;;;;;;0.08;0.08;;;;;;;28.58;32.71;99030.69;5030791;28;20462;-85
2022/05/15 08:48:12;;;;;;;0.20;0.20;;;;;;;28.48;33.65;99045.25;5047065;28;20026;-84
2022/05/15 08:50:48;;;;;;;0.32;0.32;;;;;;;28.39;32.27;99042.13;5030385;28;20083;-84
2022/05/15 08:53:35;;;;;;;0.25;0.25;;;;;;;28.43;33.67;99046.44;5031044;28;20037;-84
2022/05/15 08:56:08;;;;;;;0.10;0.10;;;;;;;28.37;33.80;99039.00;5029986;28;20033;-85
2022/05/15 08:58:45;;;;;;;0.00;0.00;;;;;;;28.37;33.27;99039.00;5029824;28;20033;-83
2022/05/15 09:01:15;;;;;;;0.08;0.08;;;;;;;28.36;33.30;99040.97;5029954;28;20029;-83
2022/05/15 09:03:40;;;;;;;0.00;0.00;;;;;;;28.35;32.90;99027.63;5029785;28;20036;-83
2022/05/15 09:06:22;;;;;;;0.30;0.30;;;;;;;28.43;33.23;99032.69;5028682;28;20029;-84
2022/05/15 09:09:10;;;;;;;0.30;0.30;;;;;;;28.38;32.67;99035.88;5029544;28;20496;-84
2022/05/15 09:11:57;;;;;;;0.30;0.30;;;;;;;28.41;32.09;99037.03;5029963;28;20033;-85
2022/05/15 09:14:48;;;;;;;0.00;0.00;;;;;;;28.42;31.35;99030.34;5030184;28;20029;-84
2022/05/15 09:17:32;;;;;;;0.20;0.20;;;;;;;28.41;31.66;99031.53;5030016;28;20566;-83
2022/05/15 09:20:02;;;;;;;0.15;0.15;;;;;;;28.47;31.77;99037.41;5031485;28;20092;-83
2022/05/15 09:22:50;;;;;;;0.38;0.38;;;;;;;28.44;32.69;99033.47;5030488;28;20037;-83
2022/05/15 09:25:21;;;;;;;0.22;0.20;;;;;;;28.44;33.79;99036.22;5030792;28;20029;-83
2022/05/15 09:28:08;;;;;;;0.32;0.32;;;;;;;28.42;33.68;99038.59;5029309;28;20037;-83
2022/05/15 09:30:42;;;;;;;0.08;0.08;;;;;;;28.46;33.03;99038.59;5029521;28;20057;-81
2022/05/15 09:33:32;;;;;;;0.13;0.13;;;;;;;28.44;32.89;99036.22;5029598;28;20030;-82
2022/05/15 09:36:22;;;;;;;0.10;0.10;;;;;;;28.49;33.17;99026.78;5021584;28;20037;-84
2022/05/15 09:38:51;;;;;;;0.00;0.00;;;;;;;28.53;33.15;99022.06;5029432;28;20025;-82
2022/05/15 09:44:29;;;;;;;2.40;1.08;;;;;;;28.51;32.16;99019.69;5030838;28;20520;-83
2022/05/15 09:47:00;;;;;;;0.25;0.25;;;;;;;28.51;31.96;99021.69;5029314;28;20120;-83
2022/05/15 09:49:30;;;;;;;0.10;0.10;;;;;;;28.48;33.04;99019.72;5029462;28;20026;-83
2022/05/15 09:52:00;;;;;;;0.22;0.10;;;;;;;28.50;32.39;99026.38;5029245;28;20029;-83
2022/05/15 09:54:36;;;;;;;0.55;0.43;;;;;;;28.56;33.49;99016.56;5029307;28;20041;-83
2022/05/15 09:57:13;;;;;;;0.00;0.00;;;;;;;28.62;33.67;99014.16;5029262;28;20034;-83
2022/05/15 09:59:40;;;;;;;0.08;0.08;;;;;;;28.60;33.86;99014.56;5029345;28;20022;-83
2022/05/15 10:02:16;;;;;;;0.00;0.00;;;;;;;28.52;32.89;99002.00;5029143;28;20033;-82
2022/05/15 10:04:48;;;;;;;0.08;0.08;;;;;;;28.46;33.63;99006.34;5029312;28;20275;-83
2022/05/15 10:07:33;;;;;;;0.20;0.20;;;;;;;28.43;34.36;99007.16;5029398;28;20232;-83
2022/05/15 10:10:17;;;;;;;0.05;0.05;;;;;;;28.54;34.69;99002.41;5029824;28;20051;-82
2022/05/15 10:12:45;;;;;;;0.10;0.10;;;;;;;28.54;33.92;99005.16;5048097;28;20484;-83
2022/05/15 10:15:13;;;;;;;0.00;0.00;;;;;;;28.54;33.49;98996.09;5049208;28;20025;-83
2022/05/15 10:17:46;;;;;;;0.00;0.00;;;;;;;28.53;32.67;99000.84;5051872;28;20021;-83
2022/05/15 10:20:22;;;;;;;0.10;0.10;;;;;;;28.56;32.88;98993.75;5053060;28;20037;-83
2022/05/15 10:23:03;;;;;;;0.10;0.10;;;;;;;28.51;31.15;98994.16;5052619;28;20029;-82
2022/05/15 10:25:49;;;;;;;0.03;0.03;;;;;;;28.43;32.81;98996.94;5052806;28;20101;-82
2022/05/15 10:28:47;;;;;;;0.10;0.10;;;;;;;28.43;31.19;98993.41;5042872;28;20133;-81
2022/05/15 10:31:23;;;;;;;0.70;0.70;;;;;;;28.51;30.85;98994.16;5032512;28;20034;-82
2022/05/15 10:34:03;;;;;;;0.15;0.15;;;;;;;28.33;31.76;98981.28;5032304;28;20021;-81
2022/05/15 10:36:51;;;;;;;1.15;0.30;;;;;;;28.35;32.26;98991.88;5032489;28;20571;-82
2022/05/15 10:39:34;;;;;;;0.00;0.00;;;;;;;28.33;32.12;98988.72;5032625;28;20489;-81
2022/05/15 10:42:13;;;;;;;0.20;0.20;;;;;;;28.37;33.34;98983.97;5032230;28;20048;-81
2022/05/15 10:45:08;;;;;;;0.00;0.00;;;;;;;28.38;33.14;98985.56;5032461;28;20075;-81
2022/05/15 10:47:53;;;;;;;0.00;0.00;;;;;;;28.37;32.95;98989.50;5032339;28;20120;-81
2022/05/15 10:50:24;;;;;;;0.00;0.00;;;;;;;28.26;31.74;98973.81;5032450;28;20452;-81
2022/05/15 10:59:15;;;;;;;0.50;0.50;;;;;;;28.20;32.15;98972.66;5033420;28;20580;-81
2022/05/15 11:01:53;;;;;;;0.20;0.20;;;;;;;28.23;33.20;98968.31;5032332;28;20036;-81
2022/05/15 11:04:46;;;;;;;0.20;0.17;;;;;;;28.26;30.92;98970.28;5032345;28;20108;-81
2022/05/15 11:07:29;;;;;;;0.03;0.03;;;;;;;28.33;30.72;98967.53;5031781;28;20029;-81
2022/05/15 11:10:08;;;;;;;0.00;0.00;;;;;;;28.40;29.98;98966.69;5031891;28;20035;-81
2022/05/15 11:13:01;;;;;;;0.30;0.30;;;;;;;28.52;29.67;98973.72;5032144;28;20033;-81
2022/05/15 11:15:35;;;;;;;0.35;0.35;;;;;;;28.55;29.99;98975.66;5032070;28;20370;-81
2022/05/15 11:18:13;;;;;;;0.32;0.32;;;;;;;28.61;29.90;98963.06;5031647;28;20067;-81
2022/05/15 11:21:09;;;;;;;0.00;0.00;;;;;;;28.64;29.95;98964.22;5031938;28;20064;-81
2022/05/15 11:23:43;;;;;;;0.20;0.20;;;;;;;28.72;29.24;98963.84;5030712;28;20045;-81
2022/05/15 11:26:17;;;;;;;0.00;0.00;;;;;;;28.79;29.00;98962.25;5031495;28;20519;-81
2022/05/15 11:28:47;;;;;;;0.05;0.05;;;;;;;28.88;28.84;98949.59;5030715;28;20029;-82
2022/05/15 11:31:25;;;;;;;0.00;0.00;;;;;;;28.99;28.57;98955.03;5031509;28;20026;-82
2022/05/15 11:33:52;;;;;;;0.00;0.00;;;;;;;29.06;26.96;98940.44;5031384;28;20044;-81
2022/05/15 11:36:21;;;;;;;0.00;0.00;;;;;;;29.08;26.89;98949.84;5031551;28;20488;-81
2022/05/15 11:39:08;;;;;;;0.00;0.00;;;;;;;29.16;26.63;98949.78;5031538;28;20039;-81
2022/05/15 11:41:36;;;;;;;0.28;0.13;;;;;;;29.24;27.60;98940.31;5023901;28;20053;-81
2022/05/15 11:44:12;;;;;;;0.00;0.00;;;;;;;29.37;26.95;98946.91;5031487;28;20125;-81
2022/05/15 11:46:47;;;;;;;0.00;0.00;;;;;;;29.43;27.23;98943.72;5031239;28;20083;-81
2022/05/15 11:49:12;;;;;;;0.00;0.00;;;;;;;29.39;27.68;98950.06;5030929;28;20049;-81
2022/05/15 11:51:38;;;;;;;0.00;0.00;;;;;;;29.45;26.74;98930.31;5031335;28;20071;-81
2022/05/15 11:54:10;;;;;;;0.00;0.00;;;;;;;29.42;26.53;98936.63;5031108;28;20112;-81
2022/05/15 11:56:51;;;;;;;0.00;0.00;;;;;;;29.50;26.59;98935.38;5031082;28;20492;-81
2022/05/15 11:59:46;;;;;;;0.08;0.08;;;;;;;29.46;25.70;98929.13;5031129;28;20489;-81
2022/05/15 12:02:20;;;;;;;0.00;0.00;;;;;;;29.45;26.77;98920.06;5030976;28;20112;-82
2022/05/15 12:04:46;;;;;;;0.10;0.10;;;;;;;29.46;27.42;98927.16;5031167;28;20033;-81
2022/05/15 12:07:14;;;;;;;0.30;0.30;;;;;;;29.50;27.36;98924.38;5030764;28;20091;-81